createdAt,value
2023-03-29T00:00:09.518Z,3.90
2023-03-29T00:02:39.276Z,3.33
2023-03-29T00:05:07.571Z,3.22
2023-03-29T00:07:35.242Z,4.45
2023-03-29T00:10:04.775Z,3.38
2023-03-29T00:12:32.816Z,4.65
2023-03-29T00:15:00.467Z,3.72
2023-03-29T00:17:28.568Z,2.55
2023-03-29T00:19:59.199Z,4.70
2023-03-29T00:22:26.643Z,5.28
2023-03-29T00:25:01.480Z,4.13
2023-03-29T00:27:29.340Z,3.35
2023-03-29T00:29:57.893Z,4.13
2023-03-29T00:32:27.512Z,6.78
2023-03-29T00:34:56.775Z,5.57
2023-03-29T00:37:29.784Z,3.92
2023-03-29T00:39:57.953Z,4.55
2023-03-29T00:42:26.251Z,6.20
2023-03-29T00:45:05.315Z,5.72
2023-03-29T00:47:50.243Z,3.53
2023-03-29T00:52:56.326Z,5.60
2023-03-29T00:55:27.659Z,3.35
2023-03-29T00:57:57.270Z,5.32
2023-03-29T01:00:31.891Z,7.82
2023-03-29T01:03:03.211Z,5.35
2023-03-29T01:05:39.229Z,4.18
2023-03-29T01:08:12.412Z,3.22
2023-03-29T01:10:48.674Z,5.25
2023-03-29T01:13:22.410Z,4.60
2023-03-29T01:15:52.804Z,4.18
2023-03-29T01:18:23.138Z,6.13
2023-03-29T01:21:10.156Z,5.20
2023-03-29T01:23:58.636Z,5.80
2023-03-29T01:26:38.540Z,4.78
2023-03-29T01:29:17.738Z,4.75
2023-03-29T01:31:50.188Z,3.40
2023-03-29T01:34:30.332Z,5.22
2023-03-29T01:37:17.229Z,5.35
2023-03-29T01:39:45.887Z,6.55
2023-03-29T01:42:26.978Z,6.63
2023-03-29T01:45:13.157Z,4.50
2023-03-29T01:48:06.098Z,5.25
2023-03-29T01:50:43.461Z,5.20
2023-03-29T01:53:43.134Z,8.57
2023-03-29T01:56:19.446Z,5.00
2023-03-29T01:58:57.629Z,5.95
2023-03-29T02:01:30.012Z,5.90
2023-03-29T02:04:03.015Z,6.25
2023-03-29T02:06:36.025Z,9.77
2023-03-29T02:09:05.249Z,4.70
2023-03-29T02:11:36.211Z,5.57
2023-03-29T02:14:03.775Z,5.38
2023-03-29T02:16:39.065Z,4.28
2023-03-29T02:19:09.533Z,4.88
2023-03-29T02:21:42.931Z,5.47
2023-03-29T02:24:14.363Z,4.60
2023-03-29T02:26:41.851Z,8.23
2023-03-29T02:29:09.841Z,6.93
2023-03-29T02:31:42.985Z,4.57
2023-03-29T02:34:30.159Z,6.70
2023-03-29T02:37:00.983Z,5.82
2023-03-29T02:39:32.292Z,4.43
2023-03-29T02:42:01.205Z,4.93
2023-03-29T02:44:31.615Z,5.28
2023-03-29T02:47:24.593Z,7.15
2023-03-29T02:49:52.490Z,6.78
2023-03-29T02:52:25.799Z,6.03
2023-03-29T02:54:55.874Z,7.13
2023-03-29T02:57:26.573Z,6.65
2023-03-29T02:59:57.050Z,5.93
2023-03-29T03:02:26.281Z,6.88
2023-03-29T03:04:54.808Z,5.45
2023-03-29T03:07:22.652Z,6.78
2023-03-29T03:09:50.160Z,4.40
2023-03-29T03:12:17.711Z,7.28
2023-03-29T03:14:45.736Z,7.95
2023-03-29T03:17:13.200Z,6.00
2023-03-29T03:19:40.806Z,5.82
2023-03-29T03:22:10.007Z,5.10
2023-03-29T03:24:37.730Z,5.05
2023-03-29T03:27:06.293Z,5.78
2023-03-29T03:29:35.334Z,6.45
2023-03-29T03:32:22.787Z,5.72
2023-03-29T03:35:16.320Z,7.40
2023-03-29T03:37:44.199Z,4.90
2023-03-29T03:40:13.492Z,5.18
2023-03-29T03:42:41.452Z,6.35
2023-03-29T03:45:12.291Z,5.90
2023-03-29T03:48:06.968Z,5.63
2023-03-29T03:51:10.219Z,4.07
2023-03-29T03:53:37.989Z,5.75
2023-03-29T03:56:31.372Z,5.18
2023-03-29T03:59:11.000Z,5.22
2023-03-29T04:01:48.346Z,6.70
2023-03-29T04:04:20.165Z,8.20
2023-03-29T04:07:13.111Z,7.97
2023-03-29T04:10:01.202Z,4.93
2023-03-29T04:12:38.477Z,6.78
2023-03-29T04:15:08.727Z,5.35
2023-03-29T04:17:36.874Z,5.32
2023-03-29T04:20:14.990Z,4.35
2023-03-29T04:22:42.440Z,7.38
2023-03-29T04:25:11.778Z,5.72
2023-03-29T04:27:49.992Z,5.50
2023-03-29T04:30:36.027Z,6.43
2023-03-29T04:33:32.558Z,11.27
2023-03-29T04:36:01.667Z,5.20
2023-03-29T04:38:31.384Z,5.50
2023-03-29T04:41:01.411Z,4.88
2023-03-29T04:43:47.727Z,6.53
2023-03-29T04:46:26.480Z,7.47
2023-03-29T04:49:17.707Z,4.82
2023-03-29T04:51:49.462Z,5.70
2023-03-29T04:54:21.341Z,5.22
2023-03-29T04:57:17.258Z,4.70
2023-03-29T05:00:14.603Z,7.65
2023-03-29T05:03:17.335Z,6.20
2023-03-29T05:05:54.775Z,7.72
2023-03-29T05:08:22.214Z,5.68
2023-03-29T05:11:11.737Z,5.40
2023-03-29T05:13:42.773Z,7.97
2023-03-29T05:16:11.299Z,6.05
2023-03-29T05:18:39.558Z,6.25
2023-03-29T05:21:07.770Z,6.25
2023-03-29T05:23:37.519Z,7.57
2023-03-29T05:26:09.855Z,6.30
2023-03-29T05:28:38.701Z,4.97
2023-03-29T05:31:07.158Z,6.25
2023-03-29T05:33:39.590Z,6.35
2023-03-29T05:36:11.220Z,8.00
2023-03-29T05:38:46.688Z,7.55
2023-03-29T05:41:15.924Z,5.85
2023-03-29T05:44:06.587Z,7.15
2023-03-29T05:46:34.607Z,6.72
2023-03-29T05:49:04.438Z,6.13
2023-03-29T05:51:52.525Z,6.88
2023-03-29T05:54:20.115Z,6.28
2023-03-29T05:56:47.609Z,5.43
2023-03-29T05:59:17.647Z,9.73
2023-03-29T06:01:48.539Z,6.45
2023-03-29T06:04:19.661Z,7.78
2023-03-29T06:07:00.306Z,8.60
2023-03-29T06:09:28.725Z,7.47
2023-03-29T06:12:04.334Z,7.60
2023-03-29T06:14:38.847Z,6.47
2023-03-29T06:17:33.797Z,6.82
2023-03-29T06:20:04.564Z,10.98
2023-03-29T06:22:32.450Z,7.10
2023-03-29T06:25:01.192Z,5.85
2023-03-29T06:27:34.608Z,6.63
2023-03-29T06:30:02.808Z,8.80
2023-03-29T06:32:34.901Z,8.20
2023-03-29T06:35:24.863Z,7.22
2023-03-29T06:38:00.232Z,8.85
2023-03-29T06:40:38.902Z,8.98
2023-03-29T06:43:07.500Z,10.10
2023-03-29T06:45:55.250Z,7.88
2023-03-29T06:48:33.065Z,14.05
2023-03-29T06:51:01.171Z,8.10
2023-03-29T06:53:30.782Z,7.85
2023-03-29T06:56:09.315Z,7.93
2023-03-29T06:58:45.132Z,8.65
2023-03-29T07:01:27.334Z,10.18
2023-03-29T07:04:09.736Z,8.73
2023-03-29T07:07:01.844Z,6.65
2023-03-29T07:09:39.439Z,10.20
2023-03-29T07:12:44.727Z,7.65
2023-03-29T07:15:15.793Z,10.20
2023-03-29T07:18:17.179Z,9.68
2023-03-29T07:20:49.366Z,7.32
2023-03-29T07:23:18.104Z,9.45
2023-03-29T07:25:47.375Z,6.85
2023-03-29T07:28:15.243Z,10.23
2023-03-29T07:30:42.956Z,8.52
2023-03-29T07:33:16.972Z,7.65
2023-03-29T07:35:50.996Z,11.38
2023-03-29T07:38:18.838Z,9.82
2023-03-29T07:40:50.399Z,9.98
2023-03-29T07:43:41.911Z,11.93
2023-03-29T07:46:11.755Z,8.27
2023-03-29T07:48:39.993Z,8.90
2023-03-29T07:51:10.071Z,10.65
2023-03-29T07:53:45.690Z,10.65
2023-03-29T07:56:30.537Z,11.40
2023-03-29T07:59:13.482Z,9.05
2023-03-29T08:01:44.625Z,10.80
2023-03-29T08:04:26.742Z,9.52
2023-03-29T08:07:16.382Z,13.30
2023-03-29T08:10:09.106Z,9.93
2023-03-29T08:12:57.300Z,10.00
2023-03-29T08:15:32.236Z,12.52
2023-03-29T08:18:01.003Z,10.48
2023-03-29T08:20:28.702Z,8.38
2023-03-29T08:23:01.442Z,12.07
2023-03-29T08:25:52.159Z,11.85
2023-03-29T08:28:19.665Z,9.90
2023-03-29T08:30:51.455Z,8.57
2023-03-29T08:33:19.142Z,10.68
2023-03-29T08:35:52.637Z,8.20
2023-03-29T08:38:29.316Z,10.63
2023-03-29T08:40:56.842Z,10.77
2023-03-29T08:43:37.914Z,12.02
2023-03-29T08:46:47.192Z,11.38
2023-03-29T08:49:27.125Z,12.55
2023-03-29T08:52:02.622Z,12.23
2023-03-29T08:54:41.603Z,9.70
2023-03-29T08:57:33.465Z,13.60
2023-03-29T09:00:10.614Z,12.45
2023-03-29T09:02:42.258Z,14.25
2023-03-29T09:05:22.868Z,10.30
2023-03-29T09:08:18.249Z,15.05
2023-03-29T09:11:13.382Z,11.15
2023-03-29T09:14:06.918Z,11.85
2023-03-29T09:16:48.528Z,16.95
2023-03-29T09:19:39.393Z,11.38
2023-03-29T09:22:31.383Z,11.75
2023-03-29T09:25:25.255Z,11.20
2023-03-29T09:28:19.255Z,11.18
2023-03-29T09:31:08.174Z,11.80
2023-03-29T09:34:09.809Z,12.95
2023-03-29T09:36:56.758Z,12.48
2023-03-29T09:39:28.469Z,12.35
2023-03-29T09:42:09.268Z,13.60
2023-03-29T09:44:49.110Z,14.85
2023-03-29T09:47:52.874Z,13.00
2023-03-29T09:50:31.617Z,14.65
2023-03-29T09:53:02.040Z,14.77
2023-03-29T09:55:34.129Z,15.45
2023-03-29T09:58:36.112Z,15.20
2023-03-29T10:01:10.382Z,16.58
2023-03-29T10:03:39.968Z,14.05
2023-03-29T10:06:14.679Z,14.15
2023-03-29T10:08:58.970Z,14.00
2023-03-29T10:11:37.250Z,10.88
2023-03-29T10:14:13.893Z,12.02
2023-03-29T10:16:46.294Z,12.82
2023-03-29T10:19:19.220Z,14.27
2023-03-29T10:21:55.101Z,12.55
2023-03-29T10:24:27.053Z,11.02
2023-03-29T10:27:01.678Z,13.02
2023-03-29T10:32:18.356Z,11.37
2023-03-29T10:34:47.722Z,11.50
2023-03-29T10:37:19.360Z,11.82
2023-03-29T10:39:48.348Z,16.38
2023-03-29T10:42:18.969Z,15.65
2023-03-29T10:44:58.361Z,13.52
2023-03-29T10:47:31.608Z,11.75
2023-03-29T10:49:59.064Z,14.38
2023-03-29T10:52:29.316Z,13.40
2023-03-29T10:54:57.030Z,14.85
2023-03-29T10:57:52.075Z,14.07
2023-03-29T11:00:37.364Z,13.18
2023-03-29T11:03:17.100Z,11.98
2023-03-29T11:05:54.039Z,13.45
2023-03-29T11:08:44.545Z,12.57
2023-03-29T11:11:36.315Z,13.55
2023-03-29T11:14:08.646Z,14.55
2023-03-29T11:16:46.881Z,14.82
2023-03-29T11:19:38.716Z,14.52
2023-03-29T11:22:15.849Z,13.52
2023-03-29T11:25:02.169Z,11.40
2023-03-29T11:27:46.144Z,15.15
2023-03-29T11:30:23.965Z,13.32
2023-03-29T11:33:28.921Z,14.82
2023-03-29T11:36:02.966Z,15.85
2023-03-29T11:38:50.968Z,13.03
2023-03-29T11:41:26.851Z,12.70
2023-03-29T11:44:06.218Z,13.50
2023-03-29T11:46:42.621Z,14.18
2023-03-29T11:49:25.250Z,13.45
2023-03-29T11:51:59.584Z,12.57
2023-03-29T11:54:53.537Z,13.57
2023-03-29T11:57:50.818Z,14.75
2023-03-29T12:00:20.818Z,13.82
2023-03-29T12:02:56.055Z,14.55
2023-03-29T12:05:30.999Z,15.63
2023-03-29T12:08:20.247Z,14.80
2023-03-29T12:10:59.085Z,14.38
2023-03-29T12:13:33.888Z,14.55
2023-03-29T12:16:46.631Z,15.02
2023-03-29T12:19:14.005Z,14.48
2023-03-29T12:21:42.530Z,16.10
2023-03-29T12:24:16.374Z,14.23
2023-03-29T12:27:02.927Z,18.60
2023-03-29T12:29:36.407Z,17.10
2023-03-29T12:32:22.099Z,15.93
2023-03-29T12:35:52.913Z,14.07
2023-03-29T12:38:59.223Z,14.02
2023-03-29T12:41:49.277Z,15.15
2023-03-29T12:44:35.823Z,14.90
2023-03-29T12:47:26.665Z,15.68
2023-03-29T12:49:59.393Z,17.33
2023-03-29T12:52:36.778Z,14.68
2023-03-29T12:55:23.771Z,14.13
2023-03-29T12:58:21.222Z,11.20
2023-03-29T13:01:16.786Z,12.73
2023-03-29T13:03:51.978Z,12.63
2023-03-29T13:06:51.199Z,12.07
2023-03-29T13:09:22.733Z,11.57
2023-03-29T13:12:22.088Z,13.70
2023-03-29T13:15:16.946Z,12.23
2023-03-29T13:18:06.985Z,12.32
2023-03-29T13:20:43.364Z,14.10
2023-03-29T13:23:33.453Z,13.23
2023-03-29T13:26:30.454Z,12.50
2023-03-29T13:29:11.494Z,11.60
2023-03-29T13:31:53.885Z,10.63
2023-03-29T13:34:46.571Z,11.55
2023-03-29T13:37:44.218Z,16.75
2023-03-29T13:40:46.829Z,16.65
2023-03-29T13:43:34.683Z,12.40
2023-03-29T13:46:03.913Z,13.70
2023-03-29T13:48:37.877Z,16.02
2023-03-29T13:51:17.473Z,14.90
2023-03-29T13:54:13.526Z,13.18
2023-03-29T13:57:01.626Z,12.68
2023-03-29T13:59:53.232Z,13.40
2023-03-29T14:02:42.767Z,13.43
2023-03-29T14:05:15.881Z,15.30
2023-03-29T14:07:54.729Z,13.82
2023-03-29T14:10:41.202Z,13.48
2023-03-29T14:13:18.248Z,13.07
2023-03-29T14:15:52.124Z,15.50
2023-03-29T14:18:23.114Z,13.10
2023-03-29T14:20:55.513Z,14.40
2023-03-29T14:23:25.518Z,14.50
2023-03-29T14:25:53.132Z,15.95
2023-03-29T14:28:27.045Z,16.08
2023-03-29T14:30:56.749Z,17.60
2023-03-29T14:33:34.510Z,13.32
2023-03-29T14:36:08.800Z,15.77
2023-03-29T14:38:37.689Z,17.58
2023-03-29T14:41:07.527Z,16.77
2023-03-29T14:43:35.049Z,14.73
2023-03-29T14:46:08.231Z,15.30
2023-03-29T14:48:37.398Z,16.73
2023-03-29T14:51:05.895Z,18.50
2023-03-29T14:53:34.592Z,14.50
2023-03-29T14:56:02.361Z,12.75
2023-03-29T14:58:34.256Z,12.15
2023-03-29T15:01:22.926Z,15.25
2023-03-29T15:04:04.517Z,15.02
2023-03-29T15:06:37.996Z,11.73
2023-03-29T15:09:07.279Z,11.35
2023-03-29T15:11:36.204Z,11.70
2023-03-29T15:14:08.846Z,13.80
2023-03-29T15:16:41.883Z,11.63
2023-03-29T15:19:21.335Z,11.40
2023-03-29T15:21:50.061Z,10.23
2023-03-29T15:24:31.784Z,12.80
2023-03-29T15:27:14.572Z,9.75
2023-03-29T15:29:43.757Z,10.15
2023-03-29T15:32:24.009Z,7.60
2023-03-29T15:35:02.575Z,13.27
2023-03-29T15:37:30.043Z,11.50
2023-03-29T15:39:57.561Z,10.23
2023-03-29T15:42:25.737Z,9.13
2023-03-29T15:44:56.864Z,8.90
2023-03-29T15:47:24.356Z,10.55
2023-03-29T15:49:51.929Z,10.43
2023-03-29T15:52:19.541Z,10.25
2023-03-29T15:54:46.910Z,8.52
2023-03-29T15:57:16.298Z,8.55
2023-03-29T15:59:44.480Z,9.15
2023-03-29T16:02:15.705Z,9.02
2023-03-29T16:04:43.571Z,8.68
2023-03-29T16:07:14.893Z,8.55
2023-03-29T16:09:43.290Z,8.40
2023-03-29T16:12:11.838Z,7.85
2023-03-29T16:14:39.456Z,7.35
2023-03-29T16:17:07.116Z,7.55
2023-03-29T16:19:35.000Z,7.97
2023-03-29T16:22:07.150Z,10.48
2023-03-29T16:24:35.844Z,9.13
2023-03-29T16:27:03.927Z,7.35
2023-03-29T16:29:31.869Z,8.25
2023-03-29T16:31:59.666Z,7.53
2023-03-29T16:34:27.069Z,7.07
2023-03-29T16:36:54.525Z,7.88
2023-03-29T16:39:22.016Z,6.63
2023-03-29T16:41:50.884Z,8.52
2023-03-29T16:44:23.914Z,7.10
2023-03-29T16:46:57.551Z,6.00
2023-03-29T16:49:25.024Z,7.15
2023-03-29T16:51:52.448Z,6.35
2023-03-29T16:54:20.003Z,8.75
2023-03-29T16:56:47.580Z,7.95
2023-03-29T16:59:15.293Z,7.20
2023-03-29T17:01:43.085Z,5.93
2023-03-29T17:04:11.537Z,6.10
2023-03-29T17:06:39.017Z,7.00
2023-03-29T17:09:07.303Z,5.70
2023-03-29T17:11:34.946Z,5.57
2023-03-29T17:14:02.454Z,5.78
2023-03-29T17:16:30.214Z,7.78
2023-03-29T17:19:00.974Z,5.95
2023-03-29T17:21:29.765Z,5.82
2023-03-29T17:23:57.519Z,5.88
2023-03-29T17:26:26.650Z,8.77
2023-03-29T17:28:54.250Z,5.93
2023-03-29T17:31:21.745Z,6.18
2023-03-29T17:33:51.884Z,7.55
2023-03-29T17:36:24.057Z,6.63
2023-03-29T17:38:51.879Z,7.40
2023-03-29T17:41:19.400Z,6.25
2023-03-29T17:43:47.813Z,6.00
2023-03-29T17:46:16.548Z,5.90
2023-03-29T17:48:46.770Z,7.35
2023-03-29T17:51:14.154Z,6.15
2023-03-29T17:53:41.466Z,8.18
2023-03-29T17:56:09.268Z,6.65
2023-03-29T17:58:36.689Z,7.68
2023-03-29T18:01:14.536Z,6.10
2023-03-29T18:03:42.785Z,7.43
2023-03-29T18:06:11.565Z,10.02
2023-03-29T18:08:39.358Z,8.63
2023-03-29T18:11:30.885Z,7.00
2023-03-29T18:14:00.732Z,8.85
2023-03-29T18:16:28.602Z,7.53
2023-03-29T18:18:56.627Z,9.70
2023-03-29T18:21:27.103Z,7.97
2023-03-29T18:23:56.989Z,8.63
2023-03-29T18:26:25.172Z,7.82
2023-03-29T18:28:54.414Z,8.50
2023-03-29T18:31:22.093Z,7.65
2023-03-29T18:33:49.618Z,8.38
2023-03-29T18:36:19.271Z,9.23
2023-03-29T18:38:46.796Z,6.75
2023-03-29T18:41:14.673Z,7.78
2023-03-29T18:43:43.160Z,10.63
2023-03-29T18:46:10.864Z,8.15
2023-03-29T18:48:41.863Z,9.18
2023-03-29T18:51:11.579Z,8.73
2023-03-29T18:53:41.552Z,7.68
2023-03-29T18:56:11.944Z,7.55
2023-03-29T18:58:39.312Z,9.63
2023-03-29T19:01:06.863Z,8.43
2023-03-29T19:03:35.133Z,8.98
2023-03-29T19:06:03.848Z,6.78
2023-03-29T19:08:32.970Z,7.88
2023-03-29T19:11:02.376Z,8.25
2023-03-29T19:13:29.867Z,9.23
2023-03-29T19:15:57.416Z,7.38
2023-03-29T19:18:25.236Z,8.48
2023-03-29T19:20:54.171Z,9.65
2023-03-29T19:23:22.983Z,9.15
2023-03-29T19:25:58.129Z,9.10
2023-03-29T19:28:26.423Z,7.97
2023-03-29T19:30:54.574Z,8.40
2023-03-29T19:33:23.266Z,8.80
2023-03-29T19:35:51.841Z,8.82
2023-03-29T19:38:20.213Z,8.20
2023-03-29T19:40:49.830Z,9.73
2023-03-29T19:43:20.643Z,7.88
2023-03-29T19:45:49.661Z,10.73
2023-03-29T19:48:23.538Z,8.93
2023-03-29T19:50:51.928Z,9.27
2023-03-29T19:53:19.466Z,8.75
2023-03-29T19:55:48.689Z,10.45
2023-03-29T19:58:18.372Z,8.88
2023-03-29T20:00:46.684Z,9.25
2023-03-29T20:03:15.680Z,8.27
2023-03-29T20:05:43.392Z,8.00
2023-03-29T20:08:11.484Z,8.60
2023-03-29T20:10:39.347Z,10.10
2023-03-29T20:13:06.843Z,7.80
2023-03-29T20:15:34.989Z,8.27
2023-03-29T20:18:02.472Z,10.38
2023-03-29T20:20:30.087Z,8.82
2023-03-29T20:22:58.553Z,7.95
2023-03-29T20:25:26.075Z,8.68
2023-03-29T20:27:53.639Z,8.57
2023-03-29T20:30:21.175Z,7.43
2023-03-29T20:32:48.636Z,9.07
2023-03-29T20:35:16.493Z,9.32
2023-03-29T20:37:43.936Z,9.73
2023-03-29T20:40:11.597Z,8.25
2023-03-29T20:42:39.272Z,8.48
2023-03-29T20:45:08.002Z,9.52
2023-03-29T20:47:42.479Z,7.97
2023-03-29T20:52:38.315Z,10.82
2023-03-29T20:55:05.996Z,7.82
2023-03-29T20:57:33.721Z,9.68
2023-03-29T21:00:01.890Z,8.38
2023-03-29T21:02:29.353Z,9.27
2023-03-29T21:05:00.240Z,9.73
2023-03-29T21:07:28.658Z,9.85
2023-03-29T21:09:56.300Z,9.07
2023-03-29T21:12:25.631Z,9.70
2023-03-29T21:14:53.108Z,10.75
2023-03-29T21:17:21.846Z,8.07
2023-03-29T21:19:49.253Z,8.85
2023-03-29T21:22:17.613Z,9.63
2023-03-29T21:24:45.009Z,8.80
2023-03-29T21:27:12.539Z,13.65
2023-03-29T21:29:40.062Z,15.10
2023-03-29T21:32:07.540Z,9.07
2023-03-29T21:34:34.827Z,9.10
2023-03-29T21:37:02.345Z,9.43
2023-03-29T21:39:30.238Z,9.30
2023-03-29T21:41:59.079Z,8.00
2023-03-29T21:44:26.776Z,10.80
2023-03-29T21:46:54.366Z,7.93
2023-03-29T21:49:21.952Z,9.27
2023-03-29T21:51:49.377Z,7.85
2023-03-29T21:54:17.130Z,8.15
2023-03-29T21:56:45.951Z,7.78
2023-03-29T21:59:13.647Z,8.20
2023-03-29T22:01:41.532Z,7.40
2023-03-29T22:04:09.030Z,12.20
2023-03-29T22:06:36.813Z,8.75
2023-03-29T22:09:05.146Z,8.93
2023-03-29T22:11:32.673Z,9.13
2023-03-29T22:14:00.158Z,10.27
2023-03-29T22:16:28.320Z,8.07
2023-03-29T22:18:55.843Z,7.38
2023-03-29T22:21:26.608Z,11.77
2023-03-29T22:23:56.113Z,7.43
2023-03-29T22:26:29.350Z,10.15
2023-03-29T22:28:57.848Z,8.30
2023-03-29T22:31:27.345Z,12.32
2023-03-29T22:33:55.705Z,9.95
2023-03-29T22:36:25.838Z,6.90
2023-03-29T22:38:54.316Z,10.20
2023-03-29T22:41:23.778Z,10.25
2023-03-29T22:43:55.006Z,7.80
2023-03-29T22:46:23.412Z,9.43
2023-03-29T22:48:52.312Z,9.02
2023-03-29T22:51:20.375Z,7.60
2023-03-29T22:53:47.886Z,9.85
2023-03-29T22:56:17.756Z,10.35
2023-03-29T22:58:45.723Z,7.30
2023-03-29T23:01:13.299Z,8.32
2023-03-29T23:03:40.866Z,6.22
2023-03-29T23:06:08.438Z,8.32
2023-03-29T23:08:36.517Z,8.77
2023-03-29T23:11:04.823Z,7.07
2023-03-29T23:13:33.592Z,9.15
2023-03-29T23:16:03.594Z,6.82
2023-03-29T23:18:34.755Z,10.35
2023-03-29T23:21:05.879Z,10.15
2023-03-29T23:23:33.891Z,8.93
2023-03-29T23:26:02.366Z,6.72
2023-03-29T23:28:34.527Z,9.88
2023-03-29T23:31:11.549Z,10.40
2023-03-29T23:33:41.305Z,6.82
2023-03-29T23:36:16.761Z,12.20
2023-03-29T23:38:45.812Z,10.57
2023-03-29T23:41:14.198Z,8.85
2023-03-29T23:43:43.153Z,7.07
2023-03-29T23:46:13.425Z,7.30
2023-03-29T23:48:49.021Z,11.32
2023-03-29T23:51:28.505Z,6.95
2023-03-29T23:53:56.863Z,6.90
2023-03-29T23:56:24.354Z,5.65
2023-03-29T23:58:51.822Z,6.85
